• Join FlightAware (Why Join?)
  • Login
  • US Flag 
11:58PM EDT


 

Airport Tracker/Info


-or-


 

Live Flight TrackerFlight Track Log ✈ SWA2749 ✈ 15-Mar-2014 ✈ KMDW - KHOU

Flight Track Log - Related Links

Times and Time Zones

All times are in EDT time to prevent confusion due to time zone crossing. See the SWA2749 flight status page for this flight to view local times or setup timezone preferences in your user account.

Time Position Orientation Groundspeed Altitude Reporting Facility
EDT Latitude Longitude Course Direction KTS MPH feet Rate Location/Type
10:31AM 41.7833 -87.8167 193° South 217 250 2,900  Level Chicago TRACON
10:32AM 41.7333 -87.8667 217° Southwest 258 297 4,100 1,560 Climbing Chicago TRACON
10:33AM 41.6969 -87.8925 208° Southwest 265 305 5,300 3,600 Climbing Chicago Center
10:34AM 41.6269 -87.9447 209° Southwest 270 311 9,700 3,420 Climbing Chicago Center
10:35AM 41.5494 -87.9747 196° South 294 338 12,400 2,460 Climbing Chicago Center
10:36AM 41.4494 -88.0133 196° South 355 409 14,900 2,580 Climbing Chicago Center
10:37AM 41.0977 -88.1161 193° South  Level FlightAware Approximate
10:37AM 41.3567 -88.0464 195° South 372 428 17,800  Level Chicago Center
10:38AM 41.2519 -88.0825 195° South 379 436 20,800 2,580 Climbing Chicago Center
10:39AM 41.1436 -88.1150 193° South 393 452 23,100 2,040 Climbing Chicago Center
10:40AM 41.0308 -88.1475 192° South 410 472 25,100 1,980 Climbing Chicago Center
10:41AM 40.8892 -88.1869 192° South 430 495 27,300 1,860 Climbing Chicago Center
10:42AM 40.7658 -88.2211 192° South 445 512 29,000 1,740 Climbing Chicago Center
10:43AM 40.6417 -88.2558 192° South 454 522 30,900 1,440 Climbing Chicago Center
10:44AM 40.5183 -88.2903 192° South 455 524 32,000 480 Climbing Chicago Center
10:45AM 40.3981 -88.3258 193° South 448 516 32,000  Level Chicago Center
10:46AM 40.2819 -88.3728 197° South 440 506 32,000 60 Level Chicago Center
10:47AM 40.1786 -88.4517 210° Southwest 428 493 32,200 1,020 Climbing Chicago Center
10:48AM 40.0742 -88.5281 209° Southwest 427 491 34,200 1,740 Climbing Chicago Center
10:49AM 39.9486 -88.6097 207° Southwest 420 483 35,900 1,200 Climbing Chicago Center
10:50AM 39.8617 -88.6650 206° Southwest 425 489 36,600 1,020 Climbing Kansas City Center
10:51AM 39.7536 -88.7336 206° Southwest 426 490 38,000 660 Climbing Kansas City Center
10:52AM 39.6478 -88.8017 206° Southwest 426 490 38,000  Level Kansas City Center
10:54AM 39.4144 -88.9481 206° Southwest 425 489 38,000  Level Kansas City Center
10:55AM 39.3239 -89.0047 206° Southwest 424 488 38,000  Level Kansas City Center
10:57AM 39.1997 -89.0831 206° Southwest 417 480 38,000  Level Kansas City Center
10:58AM 39.0967 -89.1469 206° Southwest 414 476 38,000  Level Kansas City Center
10:59AM 38.9928 -89.2114 206° Southwest 414 476 38,000  Level Kansas City Center
11:00AM 38.8894 -89.2761 206° Southwest 414 476 38,000  Level Kansas City Center
11:01AM 38.7867 -89.3400 206° Southwest 413 475 38,000  Level Kansas City Center
11:02AM 38.6839 -89.4039 206° Southwest 412 474 38,000  Level Kansas City Center
11:03AM 38.5611 -89.4794 206° Southwest 411 473 38,000  Level Kansas City Center
11:04AM 38.4589 -89.5419 206° Southwest 409 471 38,000  Level Kansas City Center
11:05AM 38.3558 -89.6044 205° Southwest 409 471 38,000  Level Kansas City Center
11:06AM 38.2539 -89.6669 206° Southwest 409 471 38,000  Level Kansas City Center
11:07AM 38.1506 -89.7289 205° Southwest 409 471 38,000  Level Kansas City Center
11:08AM 38.0303 -89.8028 206° Southwest 409 471 38,000  Level Kansas City Center
11:09AM 37.9278 -89.8653 206° Southwest 409 471 38,000  Level Kansas City Center
11:10AM 37.8208 -89.9267 204° Southwest 409 471 38,000  Level Kansas City Center
11:11AM 37.7186 -89.9889 206° Southwest 408 470 38,000  Level Kansas City Center
11:12AM 37.6164 -90.0500 205° Southwest 408 470 38,000  Level Kansas City Center
11:13AM 37.5150 -90.1119 206° Southwest 408 470 38,000  Level Kansas City Center
11:14AM 37.4125 -90.1719 205° Southwest 408 470 38,000  Level Kansas City Center
11:15AM 37.3039 -90.2356 205° Southwest 407 468 38,000  Level Kansas City Center
11:16AM 37.2031 -90.2944 205° Southwest 406 467 38,000  Level Kansas City Center
11:17AM 37.0825 -90.3667 206° Southwest 404 465 38,000  Level Kansas City Center
11:18AM 36.9814 -90.4258 205° Southwest 404 465 38,000  Level Kansas City Center
11:19AM 36.8808 -90.4833 205° Southwest 403 464 38,000  Level Kansas City Center
11:20AM 36.8011 -90.5300 205° Southwest 403 464 38,000  Level Memphis Center
11:21AM 36.7000 -90.5889 205° Southwest 403 464 38,000  Level Memphis Center
11:22AM 36.6006 -90.6458 205° Southwest 401 461 38,000  Level Memphis Center
11:23AM 36.4800 -90.7158 205° Southwest 400 460 38,000  Level Memphis Center
11:24AM 36.3808 -90.7736 205° Southwest 399 459 38,000  Level Memphis Center
11:25AM 36.2803 -90.8308 205° Southwest 399 459 38,000  Level Memphis Center
11:26AM 36.1800 -90.8892 205° Southwest 399 459 38,000  Level Memphis Center
11:27AM 36.0792 -90.9450 204° Southwest 399 459 38,000  Level Memphis Center
11:28AM 35.9811 -91.0011 205° Southwest 396 456 38,000  Level Memphis Center
11:29AM 35.8611 -91.0700 205° Southwest 395 455 38,000  Level Memphis Center
11:30AM 35.7611 -91.1272 205° Southwest 396 456 38,000  Level Memphis Center
11:31AM 35.6564 -91.1861 205° Southwest 396 456 38,000  Level Memphis Center
11:32AM 35.5564 -91.2419 204° Southwest 396 456 38,000  Level Memphis Center
11:34AM 35.4581 -91.2972 205° Southwest 396 456 38,000  Level Memphis Center
11:35AM 35.3475 -91.3578 204° Southwest 391 450 38,000  Level Memphis Center
11:36AM 35.2500 -91.4125 205° Southwest 390 449 38,000  Level Memphis Center
11:37AM 35.1514 -91.4683 205° Southwest 390 449 38,000  Level Memphis Center
11:38AM 35.0514 -91.5231 204° Southwest 390 449 38,000  Level Memphis Center
11:39AM 34.9508 -91.5786 204° Southwest 391 450 38,000  Level Memphis Center
11:40AM 34.8472 -91.6358 204° Southwest 391 450 38,000  Level Memphis Center
11:41AM 34.7458 -91.6911 204° Southwest 394 453 38,000  Level Memphis Center
11:42AM 34.6292 -91.7561 205° Southwest 394 453 38,000  Level Memphis Center
11:43AM 34.5294 -91.8111 204° Southwest 395 455 38,000  Level Memphis Center
11:44AM 34.4289 -91.8650 204° Southwest 395 455 38,000  Level Memphis Center
11:45AM 34.3292 -91.9189 204° Southwest 395 455 38,000  Level Memphis Center
11:46AM 34.2289 -91.9739 204° Southwest 395 455 38,000  Level Memphis Center
11:47AM 34.1272 -92.0278 204° Southwest 395 455 38,000  Level Memphis Center
11:48AM 34.0164 -92.0889 205° Southwest 395 455 38,000  Level Memphis Center
11:49AM 33.9161 -92.1425 204° Southwest 395 455 38,000  Level Memphis Center
11:50AM 33.8108 -92.1839 198° South 397 457 38,000  Level Memphis Center
11:51AM 33.6761 -92.2189 192° South 409 471 38,000  Level Memphis Center
11:52AM 33.5678 -92.2494 193° South 405 466 38,000  Level Memphis Center
11:53AM 33.4600 -92.2786 193° South 401 461 38,000  Level Memphis Center
11:54AM 33.3519 -92.3083 193° South 400 460 38,000  Level Memphis Center
11:55AM 33.2469 -92.3364 193° South 394 453 38,000  Level Memphis Center
11:56AM 33.1411 -92.3656 193° South 394 453 38,000  Level Memphis Center
11:57AM 33.0722 -92.3819 191° South 389 448 38,000  Level Fort Worth Center
11:58AM 32.9597 -92.4128 193° South 383 441 38,000  Level Fort Worth Center
11:59AM 32.8708 -92.4367 193° South 384 442 38,000  Level Fort Worth Center
12:00PM 32.7469 -92.4703 193° South 384 442 38,000  Level Fort Worth Center
12:01PM 32.6436 -92.4981 193° South 383 441 38,000  Level Fort Worth Center
12:02PM 32.5386 -92.5256 192° South 383 441 38,000  Level Fort Worth Center
12:03PM 32.4356 -92.5533 193° South 382 440 38,000  Level Fort Worth Center
12:04PM 32.3464 -92.6303 216° Southwest 348 400 38,000  Level Fort Worth Center
12:05PM 32.2733 -92.7058 221° Southwest 348 400 38,000  Level Fort Worth Center
12:06PM 32.2006 -92.7819 222° Southwest 349 402 38,000  Level Fort Worth Center
12:07PM 32.1258 -92.8597 221° Southwest 354 407 38,000  Level Fort Worth Center
12:08PM 32.0369 -92.9536 222° Southwest 357 411 38,000  Level Fort Worth Center
12:09PM 31.9617 -93.0319 221° Southwest 359 413 38,000  Level Fort Worth Center
12:10PM 31.8856 -93.1083 220° Southwest 360 414 38,000  Level Fort Worth Center
12:11PM 31.8100 -93.1878 222° Southwest 365 420 38,000  Level Fort Worth Center
12:12PM 31.7331 -93.2653 221° Southwest 366 421 38,000  Level Fort Worth Center
12:13PM 31.6439 -93.3583 222° Southwest 361 415 38,000  Level Fort Worth Center
12:14PM 31.5689 -93.4336 221° Southwest 359 413 38,000  Level Fort Worth Center
12:15PM 31.4947 -93.5089 221° Southwest 356 410 38,000  Level Fort Worth Center
12:16PM 31.4206 -93.5853 221° Southwest 355 409 38,000  Level Fort Worth Center
12:18PM 31.3456 -93.6600 220° Southwest 355 409 38,000  Level Fort Worth Center
12:19PM 31.2700 -93.7375 221° Southwest 358 412 38,000  Level Fort Worth Center
12:20PM 31.1622 -93.8481 221° Southwest 357 411 38,000  Level Houston Center
12:21PM 31.0900 -93.9214 221° Southwest 357 411 38,000 -840 Level Houston Center
12:22PM 31.0147 -93.9967 221° Southwest 358 412 36,300 -2,280 Descending Houston Center
12:23PM 30.9383 -94.0733 221° Southwest 356 410 33,300 -2,520 Descending Houston Center
12:24PM 30.8653 -94.1467 221° Southwest 352 405 31,100 -2,280 Descending Houston Center
12:25PM 30.7789 -94.2347 221° Southwest 349 402 28,600 -2,280 Descending Houston Center
12:26PM 30.7058 -94.3042 219° Southwest 343 395 26,400 -2,220 Descending Houston Center
12:26PM 30.6747 -94.3381 223° Southwest 339 390 25,500 -1,980 Descending Houston Center
12:27PM 30.6375 -94.3736 219° Southwest 330 380 24,400 -2,040 Descending Houston Center
12:28PM 30.5867 -94.4250 221° Southwest 325 374 22,800 -1,920 Descending Houston Center
12:28PM 30.5694 -94.4408 218° Southwest 325 374 22,400 -1,920 Descending Houston Center
12:29PM 30.5197 -94.4922 222° Southwest 307 353 20,900 -1,860 Descending Houston Center
12:29PM 30.5042 -94.5058 217° Southwest 305 351 20,500 -1,800 Descending Houston Center
12:30PM 30.4639 -94.5650 232° Southwest 297 342 19,100 -1,860 Descending Houston Center
12:30PM 30.4531 -94.5831 235° Southwest 299 344 18,600 -2,100 Descending Houston Center
12:31PM 30.4106 -94.6444 231° Southwest 300 345 17,000 -1,860 Descending Houston Center
12:31PM 30.4022 -94.6603 239° Southwest 299 344 16,700 -1,980 Descending Houston Center
12:32PM 30.3558 -94.7314 233° Southwest 305 351 14,800 -2,340 Descending Houston Center
12:32PM 30.3419 -94.7547 235° Southwest 301 346 14,300 -2,220 Descending Houston Center
12:33PM 30.3031 -94.8156 233° Southwest 306 352 12,600 -2,040 Descending Houston Center
12:33PM 30.2914 -94.8325 231° Southwest 303 349 12,200 -1,980 Descending Houston Center
12:34PM 30.2592 -94.8842 234° Southwest 305 351 10,800 -1,920 Descending Houston Center
12:34PM 30.2406 -94.9122 232° Southwest 304 350 10,200 -840 Descending Houston Center
12:35PM 30.2058 -94.9658 233° Southwest 303 349 10,000 -120 Descending Houston Center
12:35PM 30.1897 -94.9872 229° Southwest 302 348 10,100  Climbing Houston Center
12:36PM 30.1544 -95.0447 235° Southwest 298 343 10,000  Descending Houston Center
12:36PM 30.1392 -95.0631 226° Southwest 301 346 10,100  Climbing Houston Center
12:37PM 30.0836 -95.0944 206° Southwest 302 348 10,000  Descending Houston Center
12:37PM 30.0456 -95.1083 198° South 300 345 10,100  Climbing Houston Center
12:38PM 30.0067 -95.1258 201° Southwest 278 320 10,000  Descending Houston Center
12:38PM 29.9736 -95.1397 200° South 280 322 10,100  Climbing Houston Center
12:39PM 29.9339 -95.1564 200° South 266 306 10,000 -120 Descending Houston Center
12:40PM 29.9047 -95.1692 201° Southwest 267 307 10,000 -900 Level Houston Center
12:40PM 29.8653 -95.1867 201° Southwest 270 311 9,100 -1,380 Descending Houston Center
12:41PM 29.8347 -95.1997 200° South 267 307 8,600 -1,200 Descending Houston Center
12:41PM 29.8006 -95.2136 199° South 260 299 8,000 -1,380 Descending Houston Center
12:42PM 29.7681 -95.2275 200° South 258 297 7,200 -1,620 Descending Houston Center
12:42PM 29.7311 -95.2342 189° South 261 300 6,400 -1,200 Descending Houston Center
12:43PM 29.6831 -95.2347 181° South 256 295 6,000 -420 Descending Houston Center
12:43PM 29.6558 -95.2361 183° South 255 293 6,000  Level Houston Center
12:44PM 29.6150 -95.2369 181° South 256 295 6,000  Level Houston Center
12:44PM 29.5869 -95.2422 189° South 256 295 6,000 -240 Level Houston Center
12:45PM 29.5597 -95.2736 225° Southwest 246 283 5,800 -900 Descending Houston Center
12:45PM 29.5414 -95.2956 226° Southwest 215 247 5,100 -1,560 Descending Houston Center
12:46PM 29.5186 -95.3233 227° Southwest 220 253 4,200 -1,620 Descending Houston Center
12:46PM 29.5044 -95.3481 237° Southwest 220 253 3,500 -1,260 Descending Houston Center
12:47PM 29.5328 -95.3886 309° West 234 269 2,900 -900 Descending Houston Center
12:47PM 29.5475 -95.3839 16° North 213 245 2,600 -1,260 Descending Houston Center
12:48PM 29.5775 -95.3525 42° Northeast 212 244 1,600 -1,200 Descending Houston Center
12:48PM 29.5878 -95.3428 39° Northeast 185 213 1,400 -780 Descending Houston Center
12:49PM 29.6117 -95.3147 46° Northeast 187 215 800 -840 Descending Houston Center
12:49PM 29.6183 -95.3081 41° Northeast 140 161 600 -1,020 Descending Houston Center